Startpagina
METAR-TAF:

METAR-TAF

Vliegvelden :

Tingo María, Peru

breedte: 09-17-15S, lengte: 076-00-18W, hoogte: 654 m

Actueel weer

Dit bericht is 52 minuten geleden gemaakt, om 18:00 UTC
Wind 4 kt uit het noordoosten
Temperatuur 31°C
Vochtigheid 55%
Druk 1013 hPa
Zicht 10 km of meer
Weinig wolken op 4000 ft

METAR: SPGM 191800Z 04004KT 9999 FEW040 31/21 Q1013 RMK PP000

Tijdstip: 13:52 (18:52 UTC)

Verwachting

Dit bericht is 1 uur en het 37 minuten geleden gemaakt, om 17:15 UTC
Verwachting geldig van 19 om 18 UTC tot 20 om 18 UTC
Wind 4 kt uit het oostzuidoosten
Zicht 10 km of meer
Weinig wolken op 4000 ft
Van 20 om 0100 UTC
Wind 3 kt uit variabele richting
Zicht: 8000 m
Weinig wolken op 4000 ft
Verspreide wolken op 10000 ft

TAF: SPGM 191715Z 1918/2018 12004KT 9999 FEW040 TX33/1919Z TN19/2011Z FM200100 VRB03KT 8000 FEW040 SCT100

Waarnemingen en weersverwachtingen van meer dan 4000 vliegvelden (METAR en TAF).

De beschikbare stations zijn de gele en rode punten op de kaart.

Ga met uw muis naar het station om de naam te zien.

Klik dan om waarnemingen en weersverwachtingen te zien.

kaart wijzigen: klik op de groene knoppen met een zwart kruis om in te zoomen, op de groene knop met een streepje om uit te zoomen of op de groene pijlen voor aangrenzende kaarten.


METAR-TAF: